This is the latest recevied weather packets stored in our database for station/object KG7FOQ-13. If no packets are shown the sender has not sent any weather packets the latest 1 day(s).
| Time | Temp. | Humidity | Pressure | Rain* | Wind** | Luminosity | Snow |
|---|---|---|---|---|---|---|---|
| 1778043268 | 12.22° C | 58% | 1009.3 hPa | 0 mm | 3.13 m/s, 65° | - | - |
| 1778042968 | 12.22° C | 55% | 1009.2 hPa | 0 mm | 1.79 m/s, 105° | - | - |
| 1778042667 | 12.78° C | 57% | 1009.1 hPa | 0 mm | 2.24 m/s, 107° | - | - |
| 1778042367 | 13.33° C | 54% | 1009 hPa | 0 mm | 1.34 m/s, 113° | - | - |
| 1778042066 | 13.33° C | 53% | 1009 hPa | 0 mm | 2.24 m/s, 155° | - | - |
| 1778041766 | 12.22° C | 60% | 1009 hPa | 0 mm | 2.68 m/s, 55° | - | - |
| 1778041465 | 12.78° C | 55% | 1008.9 hPa | 0 mm | 0.89 m/s, 156° | - | - |
| 1778041165 | 12.22° C | 61% | 1008.8 hPa | 0 mm | 2.24 m/s, 55° | - | - |
| 1778040864 | 12.22° C | 62% | 1008.8 hPa | 0 mm | 1.34 m/s, 55° | - | - |
| 1778040595 | 12.78° C | 60% | 1008.6 hPa | 0 mm | 1.34 m/s, 183° | - | - |
| 1778040564 | 12.78° C | 60% | 1008.6 hPa | 0 mm | 1.34 m/s, 183° | - | - |
| 1778040263 | 12.78° C | 60% | 1008.5 hPa | 0 mm | 0.89 m/s, 188° | - | - |
| 1778039963 | 13.33° C | 60% | 1008.5 hPa | 0 mm | 0.89 m/s, 125° | - | - |
| 1778039662 | 13.33° C | 58% | 1008.4 hPa | 0 mm | 1.34 m/s, 65° | - | - |
| 1778039362 | 13.33° C | 59% | 1008.4 hPa | 0 mm | 2.24 m/s, 34° | - | - |
| 1778039061 | 12.78° C | 59% | 1008.3 hPa | 0 mm | 3.58 m/s, 49° | - | - |
| 1778038761 | 13.33° C | 59% | 1008.2 hPa | 0 mm | 4.02 m/s, 21° | - | - |
| 1778038460 | 13.89° C | 56% | 1008.1 hPa | 0 mm | 2.68 m/s, 45° | - | - |
| 1778038160 | 13.33° C | 58% | 1008.1 hPa | 0 mm | 3.13 m/s, 52° | - | - |
| 1778037859 | 13.89° C | 58% | 1008.1 hPa | 0 mm | 4.02 m/s, 72° | - | - |
| 1778037559 | 13.89° C | 56% | 1008 hPa | 0 mm | 4.92 m/s, 77° | - | - |
| 1778037258 | 13.89° C | 55% | 1008.1 hPa | 0 mm | 5.36 m/s, 60° | - | - |
| 1778036958 | 13.89° C | 56% | 1008.1 hPa | 0 mm | 6.26 m/s, 69° | - | - |
| 1778036657 | 14.44° C | 55% | 1008.1 hPa | 0 mm | 5.36 m/s, 66° | - | - |
| 1778036356 | 14.44° C | 54% | 1008.1 hPa | 0 mm | 6.26 m/s, 73° | - | - |
* Rain latest hour (hover to see other rain measurements)
** Current wind speed in m/s (hover to see current wind gust speed)